Time;durP1;ratioP1;P1;durP2;ratioP2;P2;SDS_P1;SDS_P2;PMS_P1;PMS_P2;Temp;Humidity;BMP_temperature;BMP_pressure;BME280_temperature;BME280_humidity;BME280_pressure;Samples;Min_cycle;Max_cycle;Signal;HPM_P1;HPM_P2
2022/03/23 00:00:35;;;;;;;8.40;7.25;;;10.30;80.30;;;;;;5018197;28;20659;-63
2022/03/23 00:03:05;;;;;;;8.10;7.30;;;10.30;81.50;;;;;;5029025;28;20193;-63
2022/03/23 00:05:33;;;;;;;7.47;6.45;;;10.30;81.40;;;;;;5030036;28;20742;-63
2022/03/23 00:08:01;;;;;;;8.23;7.30;;;10.10;81.90;;;;;;5030927;28;20303;-63
2022/03/23 00:10:29;;;;;;;7.07;6.35;;;10.10;82.40;;;;;;5027255;28;20268;-63
2022/03/23 00:12:58;;;;;;;8.27;7.03;;;10.00;82.70;;;;;;5030304;28;20710;-63
2022/03/23 00:15:27;;;;;;;7.30;6.63;;;9.90;83.00;;;;;;5030533;28;20577;-63
2022/03/23 00:17:55;;;;;;;7.10;6.40;;;9.90;82.80;;;;;;5031405;28;20244;-63
2022/03/23 00:20:25;;;;;;;8.35;7.13;;;9.90;81.70;;;;;;5024763;28;20223;-63
2022/03/23 00:22:53;;;;;;;7.10;6.50;;;9.90;80.80;;;;;;5018325;28;20228;-63
2022/03/23 00:25:20;;;;;;;7.88;5.97;;;9.90;81.50;;;;;;5028726;28;20288;-63
2022/03/23 00:27:48;;;;;;;7.40;6.80;;;9.80;83.50;;;;;;5020382;28;20316;-62
2022/03/23 00:30:17;;;;;;;9.15;6.50;;;9.80;83.00;;;;;;5027962;28;20338;-62
2022/03/23 00:32:44;;;;;;;8.20;7.35;;;9.70;82.00;;;;;;5027877;28;20280;-62
2022/03/23 00:35:12;;;;;;;7.85;7.15;;;9.70;81.30;;;;;;5025496;28;20708;-62
2022/03/23 00:37:43;;;;;;;7.53;6.82;;;9.60;74.90;;;;;;5031099;28;20304;-62
2022/03/23 00:40:12;;;;;;;10.18;8.15;;;9.30;81.00;;;;;;5028634;28;20201;-62
2022/03/23 00:42:40;;;;;;;6.80;6.20;;;9.10;75.00;;;;;;5029831;28;20228;-62
2022/03/23 00:45:11;;;;;;;7.65;6.95;;;9.10;80.40;;;;;;5029416;28;20251;-62
2022/03/23 00:47:39;;;;;;;7.68;6.97;;;9.10;80.60;;;;;;5024413;28;20244;-62
2022/03/23 00:50:07;;;;;;;7.47;6.82;;;9.30;81.80;;;;;;5026374;28;20303;-62
2022/03/23 00:52:36;;;;;;;8.32;7.32;;;9.40;82.60;;;;;;5027019;28;20629;-62
2022/03/23 00:55:09;;;;;;;8.50;6.88;;;9.40;81.20;;;;;;5026250;28;20225;-62
2022/03/23 00:57:37;;;;;;;7.75;6.90;;;9.50;81.60;;;;;;5024175;28;20286;-62
2022/03/23 01:00:12;;;;;;;7.47;6.78;;;9.60;81.00;;;;;;5025478;28;20697;-62
2022/03/23 01:02:40;;;;;;;9.02;6.65;;;9.70;80.10;;;;;;5027750;28;20283;-62
2022/03/23 01:05:09;;;;;;;8.00;6.50;;;9.80;80.20;;;;;;5028534;28;21939;-62
2022/03/23 01:07:37;;;;;;;8.65;5.88;;;9.90;78.60;;;;;;5029993;28;20270;-62
2022/03/23 01:10:11;;;;;;;8.02;6.28;;;9.90;80.70;;;;;;5020605;28;20243;-62
2022/03/23 01:12:39;;;;;;;6.57;5.95;;;9.90;81.40;;;;;;5027352;28;20197;-63
2022/03/23 01:15:09;;;;;;;7.35;6.47;;;9.80;85.20;;;;;;5025158;28;20193;-63
2022/03/23 01:17:37;;;;;;;8.27;7.38;;;9.80;82.30;;;;;;5030910;28;20213;-63
2022/03/23 01:20:08;;;;;;;7.97;6.57;;;9.70;83.50;;;;;;5023580;28;20229;-63
2022/03/23 01:22:36;;;;;;;7.40;6.70;;;9.60;85.10;;;;;;5023743;28;20228;-63
2022/03/23 01:25:05;;;;;;;7.70;7.00;;;9.50;83.50;;;;;;5024239;28;20236;-63
2022/03/23 01:27:35;;;;;;;7.65;6.85;;;9.60;83.70;;;;;;5024598;28;20299;-63
2022/03/23 01:30:05;;;;;;;8.43;6.80;;;9.50;83.70;;;;;;5026076;28;20221;-63
2022/03/23 01:32:33;;;;;;;7.90;7.00;;;9.30;84.70;;;;;;5023395;28;20231;-63
2022/03/23 01:35:01;;;;;;;6.50;6.00;;;9.30;85.90;;;;;;5025618;28;20212;-63
2022/03/23 01:37:29;;;;;;;8.43;7.25;;;9.20;86.00;;;;;;5024636;28;20471;-63
2022/03/23 01:39:57;;;;;;;9.93;7.63;;;9.10;80.70;;;;;;5024237;28;21382;-63
2022/03/23 01:42:27;;;;;;;6.40;5.85;;;8.80;80.60;;;;;;5028646;28;20193;-63
2022/03/23 01:44:57;;;;;;;7.03;5.95;;;8.60;84.40;;;;;;5032415;28;20255;-63
2022/03/23 01:47:25;;;;;;;7.80;7.10;;;8.60;86.10;;;;;;5031857;28;20320;-63
2022/03/23 01:49:55;;;;;;;7.70;6.47;;;8.70;82.40;;;;;;5019310;28;20656;-63
2022/03/23 01:52:24;;;;;;;9.38;6.43;;;8.60;84.40;;;;;;5028421;28;20303;-63
2022/03/23 01:54:53;;;;;;;8.77;7.07;;;8.70;85.50;;;;;;5030587;28;20211;-63
2022/03/23 01:57:22;;;;;;;8.40;6.88;;;8.70;79.60;;;;;;5032185;28;20311;-63
2022/03/23 01:59:51;;;;;;;10.75;6.80;;;8.50;78.70;;;;;;5029097;28;20201;-64
2022/03/23 02:02:20;;;;;;;6.63;5.75;;;8.40;83.70;;;;;;5028547;28;20201;-64
2022/03/23 02:04:48;;;;;;;7.07;6.38;;;8.30;86.30;;;;;;5018691;28;20208;-64
2022/03/23 02:07:16;;;;;;;13.02;6.32;;;8.20;79.60;;;;;;5028105;28;20768;-63
2022/03/23 02:09:44;;;;;;;7.47;6.60;;;8.10;86.30;;;;;;5029687;28;20761;-63
2022/03/23 02:12:12;;;;;;;7.63;6.90;;;8.00;81.70;;;;;;5033310;28;20228;-63
2022/03/23 02:14:40;;;;;;;7.07;6.40;;;8.10;83.10;;;;;;5029222;28;20236;-64
2022/03/23 02:17:09;;;;;;;10.40;7.45;;;8.10;85.30;;;;;;5033569;28;20634;-63
2022/03/23 02:19:38;;;;;;;8.13;6.80;;;8.10;84.90;;;;;;5028175;28;20624;-63
2022/03/23 02:22:07;;;;;;;8.35;7.50;;;8.00;81.40;;;;;;5031162;28;20205;-63
2022/03/23 02:24:35;;;;;;;8.57;7.53;;;7.90;82.50;;;;;;5031363;28;20283;-63
2022/03/23 02:27:03;;;;;;;9.38;8.23;;;7.80;81.80;;;;;;5029822;28;20702;-63
2022/03/23 02:29:32;;;;;;;8.55;7.75;;;7.70;82.80;;;;;;5027340;28;20201;-64
2022/03/23 02:32:01;;;;;;;8.70;7.75;;;7.80;81.70;;;;;;5030107;28;20279;-63
2022/03/23 02:34:30;;;;;;;8.25;6.47;;;7.70;82.70;;;;;;5032667;28;20247;-63
2022/03/23 02:36:58;;;;;;;7.72;7.03;;;7.40;82.40;;;;;;5029155;28;20311;-63
2022/03/23 02:39:28;;;;;;;7.05;6.35;;;7.30;84.30;;;;;;5030925;28;20231;-63
2022/03/23 02:41:57;;;;;;;9.02;6.40;;;7.30;84.70;;;;;;5027651;28;20271;-63
2022/03/23 02:44:26;;;;;;;6.95;6.35;;;7.20;85.90;;;;;;5028873;28;20295;-63
2022/03/23 02:46:54;;;;;;;7.07;6.38;;;7.40;89.80;;;;;;5029713;28;20386;-63
2022/03/23 02:49:22;;;;;;;8.98;7.80;;;7.60;90.40;;;;;;5027855;28;20297;-64
2022/03/23 02:51:51;;;;;;;7.78;6.97;;;7.60;86.40;;;;;;5026866;28;20220;-63
2022/03/23 03:03:05;;;;;;;7.05;6.35;;;7.60;88.50;;;;;;5031108;28;20215;-63
2022/03/23 03:05:33;;;;;;;7.78;6.85;;;7.70;88.20;;;;;;5022860;28;20308;-63
2022/03/23 03:10:47;;;;;;;6.13;5.68;;;7.90;88.30;;;;;;5029166;28;20315;-63
2022/03/23 03:13:16;;;;;;;6.97;6.28;;;8.10;87.60;;;;;;5020134;28;20276;-63
2022/03/23 03:15:44;;;;;;;7.43;6.60;;;8.20;88.90;;;;;;5025385;28;20279;-64
2022/03/23 03:18:11;;;;;;;6.97;6.28;;;8.30;86.30;;;;;;5026351;28;20308;-64
2022/03/23 03:20:39;;;;;;;8.98;6.85;;;8.40;85.10;;;;;;5025241;28;20204;-63
2022/03/23 03:23:07;;;;;;;7.05;6.40;;;8.40;87.00;;;;;;5017086;28;20247;-63
2022/03/23 03:25:35;;;;;;;7.07;6.32;;;8.40;86.40;;;;;;5029375;28;20644;-63
2022/03/23 03:28:03;;;;;;;9.05;6.85;;;8.40;87.20;;;;;;5029628;28;20307;-63
2022/03/23 03:30:33;;;;;;;6.93;6.22;;;8.40;87.90;;;;;;5027802;28;20729;-63
2022/03/23 03:33:01;;;;;;;7.03;5.63;;;8.40;88.10;;;;;;5030571;28;20279;-63
2022/03/23 03:35:30;;;;;;;7.13;6.43;;;8.30;87.60;;;;;;5022491;28;20198;-63
2022/03/23 03:37:58;;;;;;;6.78;6.07;;;8.20;87.70;;;;;;5019870;28;20251;-63
2022/03/23 03:40:26;;;;;;;6.40;5.78;;;8.20;87.00;;;;;;5020876;28;20197;-63
2022/03/23 03:42:54;;;;;;;10.27;6.97;;;8.20;83.10;;;;;;5027274;28;20312;-63
2022/03/23 03:45:22;;;;;;;6.50;5.88;;;8.10;80.50;;;;;;5030766;28;20224;-64
2022/03/23 03:47:52;;;;;;;6.70;6.07;;;7.80;83.10;;;;;;5054639;22;20315;-62
2022/03/23 03:50:19;;;;;;;7.25;6.55;;;8.10;86.80;;;;;;5025317;28;20303;-62
2022/03/23 03:52:47;;;;;;;8.25;6.95;;;7.60;80.90;;;;;;5024573;28;20223;-61
2022/03/23 03:55:15;;;;;;;6.88;6.18;;;7.40;83.50;;;;;;5030416;28;20227;-62
2022/03/23 03:57:43;;;;;;;7.55;6.05;;;7.20;86.00;;;;;;5021032;28;20244;-63
2022/03/23 04:00:13;;;;;;;10.20;7.10;;;7.30;90.10;;;;;;5010594;28;20232;-63
2022/03/23 04:02:41;;;;;;;8.95;6.13;;;7.40;89.00;;;;;;5011109;28;20216;-63
2022/03/23 04:05:10;;;;;;;7.20;5.80;;;7.50;89.00;;;;;;5010949;28;20201;-64
2022/03/23 04:07:38;;;;;;;6.93;6.22;;;7.60;90.50;;;;;;5007856;28;20291;-64
2022/03/23 04:10:07;;;;;;;6.35;5.75;;;7.80;89.20;;;;;;5010451;28;20734;-64
2022/03/23 04:12:35;;;;;;;6.45;5.85;;;7.90;89.90;;;;;;5011498;28;20268;-64
2022/03/23 04:15:04;;;;;;;5.95;5.43;;;7.90;89.70;;;;;;5008146;28;20231;-63
2022/03/23 04:17:31;;;;;;;6.43;5.90;;;8.00;88.30;;;;;;5011781;28;20245;-64
2022/03/23 04:20:00;;;;;;;7.45;6.15;;;7.90;87.80;;;;;;5009517;28;20190;-64
2022/03/23 04:22:29;;;;;;;7.78;6.78;;;7.80;87.90;;;;;;5004956;28;20260;-64
2022/03/23 04:24:57;;;;;;;8.13;6.57;;;7.60;88.20;;;;;;5006549;28;20244;-64
2022/03/23 04:27:25;;;;;;;7.65;6.72;;;7.60;83.90;;;;;;5011379;28;20268;-62
2022/03/23 04:29:53;;;;;;;15.32;6.55;;;7.50;87.80;;;;;;5011158;28;20324;-62
2022/03/23 04:32:21;;;;;;;7.35;6.50;;;7.60;89.30;;;;;;5011202;28;20244;-61
2022/03/23 04:34:49;;;;;;;6.35;5.75;;;7.60;89.80;;;;;;5008348;28;20275;-62
2022/03/23 04:37:17;;;;;;;7.90;6.00;;;7.60;88.50;;;;;;5005701;28;20301;-61
2022/03/23 04:39:46;;;;;;;8.45;6.20;;;7.60;87.00;;;;;;5011005;28;20221;-62
2022/03/23 04:42:14;;;;;;;6.72;6.05;;;7.60;88.80;;;;;;5010280;28;20224;-61
2022/03/23 04:44:42;;;;;;;6.15;5.30;;;7.50;89.70;;;;;;5009634;28;20251;-62
2022/03/23 04:47:09;;;;;;;8.00;5.45;;;7.60;90.00;;;;;;5009841;28;20576;-62
2022/03/23 04:49:37;;;;;;;6.38;5.75;;;7.70;88.00;;;;;;5008986;28;20275;-61
2022/03/23 04:52:06;;;;;;;8.40;6.57;;;7.60;88.20;;;;;;5004022;28;20319;-61
2022/03/23 04:54:34;;;;;;;8.68;6.35;;;7.50;88.60;;;;;;5010636;28;20616;-62
2022/03/23 04:57:03;;;;;;;7.80;5.82;;;7.40;89.70;;;;;;5009569;28;20299;-61
2022/03/23 04:59:31;;;;;;;6.55;5.50;;;7.50;90.60;;;;;;5009588;28;20252;-62
2022/03/23 05:01:59;;;;;;;7.50;6.55;;;7.60;88.90;;;;;;5009823;28;20202;-61
2022/03/23 05:04:27;;;;;;;6.40;5.90;;;7.60;90.20;;;;;;5004720;28;20214;-62
2022/03/23 05:06:55;;;;;;;7.63;6.70;;;7.70;89.90;;;;;;5010829;28;20225;-62
2022/03/23 05:09:23;;;;;;;7.53;6.82;;;7.70;90.20;;;;;;5010509;28;20229;-62
2022/03/23 05:11:51;;;;;;;8.10;6.60;;;7.70;89.70;;;;;;5011104;28;20292;-62
2022/03/23 05:14:21;;;;;;;7.70;7.00;;;7.70;90.50;;;;;;5010771;28;20229;-62
2022/03/23 05:16:49;;;;;;;7.60;6.90;;;7.70;89.40;;;;;;5013513;28;20592;-61
2022/03/23 05:19:17;;;;;;;6.97;6.38;;;7.70;90.50;;;;;;5013268;28;20280;-62
2022/03/23 05:21:45;;;;;;;7.53;6.45;;;7.70;91.00;;;;;;5011642;28;20694;-62
2022/03/23 05:24:13;;;;;;;7.55;6.60;;;7.70;90.10;;;;;;5007250;28;20225;-62
2022/03/23 05:26:41;;;;;;;6.93;6.25;;;7.80;90.20;;;;;;5001822;28;20908;-62
2022/03/23 05:29:09;;;;;;;6.93;6.18;;;7.80;89.10;;;;;;4985564;28;20305;-62
2022/03/23 05:31:39;;;;;;;8.10;7.00;;;7.90;89.50;;;;;;4984606;28;20261;-61
2022/03/23 05:34:07;;;;;;;7.93;6.97;;;7.90;89.30;;;;;;4986813;28;20601;-62
2022/03/23 05:36:34;;;;;;;7.85;7.15;;;7.90;90.10;;;;;;4986227;28;20280;-62
2022/03/23 05:39:02;;;;;;;8.20;7.38;;;7.80;90.20;;;;;;4985681;28;21040;-62
2022/03/23 05:41:30;;;;;;;9.23;8.18;;;7.80;90.10;;;;;;4982506;28;20233;-63
2022/03/23 05:43:58;;;;;;;7.97;7.18;;;7.60;92.10;;;;;;4987464;28;20600;-62
2022/03/23 05:46:26;;;;;;;7.78;7.07;;;7.50;92.30;;;;;;4983156;28;20597;-62
2022/03/23 05:48:55;;;;;;;8.73;7.60;;;7.50;91.60;;;;;;4982638;28;20532;-62
2022/03/23 05:51:24;;;;;;;8.10;7.30;;;7.50;91.40;;;;;;4987787;28;21067;-62
2022/03/23 05:53:52;;;;;;;9.60;7.78;;;7.50;92.20;;;;;;4985377;28;20216;-62
2022/03/23 05:56:20;;;;;;;8.10;7.30;;;7.60;91.30;;;;;;4987297;28;20213;-62
2022/03/23 05:58:48;;;;;;;9.52;7.35;;;7.70;91.40;;;;;;4986580;28;20631;-61
2022/03/23 06:01:16;;;;;;;7.80;6.85;;;7.80;91.10;;;;;;4983144;28;20292;-64
2022/03/23 06:03:44;;;;;;;8.52;7.20;;;7.80;92.30;;;;;;4984620;28;20264;-63
2022/03/23 06:06:13;;;;;;;11.02;7.47;;;8.00;93.60;;;;;;4986846;28;20289;-62
2022/03/23 06:08:41;;;;;;;10.32;7.30;;;7.90;91.10;;;;;;4984656;28;20229;-62
2022/03/23 06:11:09;;;;;;;7.95;7.07;;;7.90;91.40;;;;;;4989686;28;20920;-63
2022/03/23 06:13:37;;;;;;;6.88;6.28;;;7.80;91.50;;;;;;4987711;28;20232;-62
2022/03/23 06:16:06;;;;;;;11.80;6.70;;;7.90;91.80;;;;;;4988014;28;20772;-63
2022/03/23 06:18:34;;;;;;;10.95;7.60;;;8.00;92.10;;;;;;4986446;28;20229;-62
2022/03/23 06:21:03;;;;;;;9.40;8.52;;;8.10;92.20;;;;;;4983458;28;20313;-62
2022/03/23 06:23:32;;;;;;;8.82;7.97;;;8.20;91.80;;;;;;4987438;28;20674;-64
2022/03/23 06:26:01;;;;;;;8.88;8.02;;;8.30;91.80;;;;;;4981991;28;20196;-63
2022/03/23 06:28:29;;;;;;;8.75;7.85;;;8.50;91.20;;;;;;4983148;28;20230;-63
2022/03/23 06:30:59;;;;;;;12.43;7.80;;;8.60;91.20;;;;;;4983249;28;20241;-63
2022/03/23 06:33:27;;;;;;;11.48;8.32;;;8.70;90.90;;;;;;4985656;28;21835;-63
2022/03/23 06:35:55;;;;;;;9.05;8.07;;;8.70;91.40;;;;;;5010874;28;20701;-63
2022/03/23 06:38:23;;;;;;;11.82;9.40;;;8.80;91.80;;;;;;4983106;28;20608;-63
2022/03/23 06:40:52;;;;;;;10.13;8.60;;;8.90;91.00;;;;;;4986770;28;20312;-63
2022/03/23 06:43:20;;;;;;;10.02;8.60;;;8.90;91.10;;;;;;4982852;28;20233;-63
2022/03/23 06:45:48;;;;;;;13.05;10.80;;;9.00;91.20;;;;;;4987089;28;20198;-63
2022/03/23 06:48:16;;;;;;;14.50;9.25;;;9.10;89.60;;;;;;4985981;28;20241;-63
2022/03/23 06:50:45;;;;;;;10.38;9.27;;;9.30;90.70;;;;;;4984096;28;20202;-63
2022/03/23 06:53:12;;;;;;;12.32;9.63;;;9.40;91.20;;;;;;4982627;28;20252;-63
2022/03/23 06:55:40;;;;;;;10.82;9.73;;;9.40;91.30;;;;;;5000286;28;20234;-62
2022/03/23 06:58:09;;;;;;;11.68;10.48;;;9.50;90.40;;;;;;5009401;28;20259;-63
2022/03/23 07:00:38;;;;;;;12.30;9.50;;;9.40;90.10;;;;;;5010652;28;20734;-63
2022/03/23 07:03:06;;;;;;;11.32;10.15;;;9.50;91.00;;;;;;5011721;28;20193;-63
2022/03/23 07:05:35;;;;;;;13.93;10.85;;;9.50;90.00;;;;;;5012939;28;20201;-63
2022/03/23 07:10:54;;;;;;;12.93;10.75;;;9.60;88.40;;;;;;5005967;28;20236;-63
2022/03/23 07:13:24;;;;;;;10.70;9.73;;;9.60;89.40;;;;;;5012511;28;20245;-63
2022/03/23 07:15:52;;;;;;;11.07;9.93;;;9.50;87.40;;;;;;5012715;28;20304;-63
2022/03/23 07:18:25;;;;;;;9.80;8.85;;;9.50;88.10;;;;;;5012774;28;20252;-63
2022/03/23 07:20:53;;;;;;;14.40;11.10;;;9.40;89.20;;;;;;5009409;28;20201;-64
2022/03/23 07:23:21;;;;;;;11.90;9.73;;;9.50;85.80;;;;;;5006146;28;20194;-64
2022/03/23 07:25:49;;;;;;;11.55;10.35;;;9.60;88.80;;;;;;5012672;28;20702;-65
2022/03/23 07:28:17;;;;;;;9.25;8.45;;;9.70;85.30;;;;;;5012550;28;20725;-64
2022/03/23 07:30:46;;;;;;;11.18;9.95;;;9.70;87.60;;;;;;5012718;28;20412;-64
2022/03/23 07:33:14;;;;;;;10.00;9.00;;;9.80;87.10;;;;;;5012098;28;20602;-64
2022/03/23 07:35:42;;;;;;;10.80;9.15;;;10.00;86.50;;;;;;5012482;28;20308;-64
2022/03/23 07:38:10;;;;;;;13.98;9.98;;;10.10;83.60;;;;;;5011252;28;20256;-64
2022/03/23 07:40:38;;;;;;;10.15;9.15;;;10.10;83.80;;;;;;5012349;28;20205;-65
2022/03/23 07:43:06;;;;;;;11.20;9.85;;;10.20;87.10;;;;;;5012080;28;20745;-64
2022/03/23 07:45:34;;;;;;;11.65;9.93;;;10.30;85.60;;;;;;5012405;28;20288;-64
2022/03/23 07:48:04;;;;;;;11.80;10.80;;;10.50;85.50;;;;;;5011832;28;20283;-64
2022/03/23 07:50:32;;;;;;;11.05;8.63;;;10.70;82.10;;;;;;5005988;28;20203;-64
2022/03/23 07:53:00;;;;;;;12.65;11.10;;;10.70;84.30;;;;;;5004029;28;20220;-64
2022/03/23 07:55:28;;;;;;;12.18;10.52;;;10.70;81.10;;;;;;5011966;28;20595;-64
2022/03/23 07:57:55;;;;;;;12.10;10.27;;;10.90;85.50;;;;;;5011964;28;20323;-65
2022/03/23 08:00:23;;;;;;;11.85;10.57;;;11.20;82.00;;;;;;5012183;28;20292;-65
2022/03/23 08:02:51;;;;;;;14.18;10.80;;;11.20;81.60;;;;;;5011700;28;20738;-65
2022/03/23 08:05:21;;;;;;;15.18;11.05;;;11.20;80.70;;;;;;5012137;28;20236;-64
2022/03/23 08:07:49;;;;;;;13.38;11.93;;;11.20;82.50;;;;;;5011801;28;20736;-64
2022/03/23 08:10:17;;;;;;;13.57;12.18;;;11.30;83.00;;;;;;5012129;28;20241;-64
2022/03/23 08:12:44;;;;;;;13.13;11.80;;;11.60;83.70;;;;;;5011574;28;20586;-65
2022/03/23 08:15:12;;;;;;;14.88;11.77;;;11.70;83.20;;;;;;5011799;28;20225;-65
2022/03/23 08:17:40;;;;;;;13.18;11.88;;;11.80;83.80;;;;;;5011383;28;20267;-64
2022/03/23 08:23:00;;;;;;;14.75;12.93;;;12.00;82.90;;;;;;5009793;28;20209;-63
2022/03/23 08:25:28;;;;;;;14.10;12.70;;;12.20;81.50;;;;;;5011733;28;20197;-63
2022/03/23 08:27:58;;;;;;;14.80;13.25;;;12.10;82.30;;;;;;5011179;28;20256;-63
2022/03/23 08:30:26;;;;;;;12.75;11.60;;;12.30;83.30;;;;;;5011704;28;20251;-63
2022/03/23 08:32:54;;;;;;;15.35;13.95;;;12.50;83.70;;;;;;5011310;28;20208;-63
2022/03/23 08:35:23;;;;;;;11.68;10.55;;;12.80;83.00;;;;;;5011563;28;20232;-63
2022/03/23 08:37:52;;;;;;;17.13;12.98;;;12.70;84.10;;;;;;5011246;28;20356;-63
2022/03/23 08:40:21;;;;;;;16.42;14.45;;;12.80;81.90;;;;;;5011655;28;20213;-62
2022/03/23 08:42:49;;;;;;;17.20;13.95;;;12.70;82.10;;;;;;5010975;28;20296;-63
2022/03/23 08:45:18;;;;;;;17.58;14.80;;;12.80;83.40;;;;;;5011563;28;20280;-64
2022/03/23 08:47:48;;;;;;;15.05;13.45;;;13.00;83.50;;;;;;5011016;28;20307;-64
2022/03/23 08:50:17;;;;;;;15.05;13.55;;;13.40;83.60;;;;;;5005782;28;20292;-63
2022/03/23 08:52:45;;;;;;;16.92;13.60;;;13.50;82.00;;;;;;5007600;28;20189;-64
2022/03/23 08:55:17;;;;;;;16.10;13.70;;;13.30;81.80;;;;;;5009718;28;20253;-62
2022/03/23 08:57:47;;;;;;;14.82;13.43;;;13.60;83.00;;;;;;5005909;28;20248;-63
2022/03/23 09:00:16;;;;;;;16.70;13.95;;;13.80;82.40;;;;;;5011311;28;20300;-63
2022/03/23 09:02:44;;;;;;;16.27;14.68;;;14.10;81.10;;;;;;5011044;28;20627;-63
2022/03/23 09:05:14;;;;;;;18.90;15.98;;;14.20;79.70;;;;;;5011215;28;20247;-63
2022/03/23 09:07:43;;;;;;;22.45;14.90;;;14.50;79.90;;;;;;5010990;28;20283;-63
2022/03/23 09:10:13;;;;;;;17.15;12.77;;;14.80;79.60;;;;;;5011283;28;20276;-64
2022/03/23 09:12:41;;;;;;;18.23;14.13;;;15.00;80.50;;;;;;5011012;28;20255;-64
2022/03/23 09:15:13;;;;;;;16.50;14.80;;;15.20;80.40;;;;;;5011375;28;20265;-64
2022/03/23 09:17:41;;;;;;;17.15;14.57;;;15.30;79.40;;;;;;5005137;28;20221;-63
2022/03/23 09:20:12;;;;;;;16.00;13.98;;;15.60;79.20;;;;;;5000839;28;20230;-63
2022/03/23 09:22:40;;;;;;;17.73;15.15;;;15.90;79.00;;;;;;5006557;28;20197;-63
2022/03/23 09:25:12;;;;;;;19.52;14.60;;;16.20;78.80;;;;;;5011135;28;20229;-64
2022/03/23 09:27:42;;;;;;;19.27;15.88;;;16.40;77.50;;;;;;5010765;28;20221;-64
2022/03/23 09:30:13;;;;;;;17.27;15.40;;;16.40;76.60;;;;;;5011386;28;20244;-63
2022/03/23 09:32:42;;;;;;;18.15;14.43;;;16.20;76.80;;;;;;5010648;28;20205;-64
2022/03/23 09:35:11;;;;;;;18.05;13.75;;;16.50;76.60;;;;;;5009664;28;20229;-64
2022/03/23 09:37:49;;;;;;;17.73;15.82;;;16.80;76.70;;;;;;5010728;28;20312;-64
2022/03/23 09:40:19;;;;;;;18.70;15.45;;;17.20;75.50;;;;;;5011075;28;20255;-63
2022/03/23 09:42:49;;;;;;;17.20;15.15;;;17.30;72.90;;;;;;5010604;28;20197;-63
2022/03/23 09:45:32;;;;;;;15.25;13.80;;;17.00;74.80;;;;;;5011127;28;20288;-63
2022/03/23 09:48:00;;;;;;;17.40;15.32;;;17.10;73.20;;;;;;5025172;22;20233;-65
2022/03/23 09:50:30;;;;;;;23.58;15.73;;;17.40;72.50;;;;;;4996722;28;20205;-65
2022/03/23 09:52:59;;;;;;;15.38;13.68;;;17.50;73.20;;;;;;4995921;28;20209;-65
2022/03/23 09:55:27;;;;;;;16.25;14.60;;;17.80;73.20;;;;;;4991397;28;20222;-63
2022/03/23 09:57:56;;;;;;;15.77;14.15;;;18.40;72.10;;;;;;4991343;28;20316;-62
2022/03/23 10:00:27;;;;;;;16.63;13.05;;;18.70;72.00;;;;;;4991262;28;20245;-63
2022/03/23 10:03:52;;;;;;;16.25;14.65;;;18.80;69.60;;;;;;4994287;28;20290;-63
2022/03/23 10:06:47;;;;;;;13.77;12.48;;;18.70;67.70;;;;;;4954529;28;20309;-64
2022/03/23 10:09:48;;;;;;;15.48;14.05;;;19.10;66.40;;;;;;4994400;28;20202;-64
2022/03/23 10:12:53;;;;;;;16.40;14.75;;;19.50;66.10;;;;;;4994242;28;20255;-64
2022/03/23 10:16:04;;;;;;;16.05;13.93;;;19.50;64.10;;;;;;4994329;28;20689;-65
2022/03/23 10:18:51;;;;;;;17.75;15.35;;;19.40;63.00;;;;;;4988109;28;20230;-64
2022/03/23 10:21:20;;;;;;;15.40;13.80;;;19.50;65.40;;;;;;4998593;28;20206;-64
2022/03/23 10:24:25;;;;;;;17.35;15.70;;;19.70;65.50;;;;;;4993906;28;20202;-64
2022/03/23 10:26:53;;;;;;;16.98;14.63;;;19.60;64.30;;;;;;4993858;28;20288;-64
2022/03/23 10:29:23;;;;;;;16.38;14.50;;;19.60;62.60;;;;;;4994095;28;20734;-65
2022/03/23 10:32:02;;;;;;;16.13;14.52;;;19.70;64.60;;;;;;4994315;28;20202;-65
2022/03/23 10:34:48;;;;;;;16.42;14.75;;;20.00;64.50;;;;;;4993950;28;20718;-64
2022/03/23 10:37:23;;;;;;;18.75;15.75;;;20.50;62.60;;;;;;4993976;28;20321;-64
2022/03/23 10:39:51;;;;;;;14.82;13.13;;;20.50;61.60;;;;;;4994105;28;20289;-64
2022/03/23 10:42:22;;;;;;;17.25;14.98;;;20.40;62.60;;;;;;4993485;28;20237;-66
2022/03/23 10:44:50;;;;;;;17.77;15.02;;;20.70;62.20;;;;;;4993455;28;20682;-64
2022/03/23 10:47:31;;;;;;;15.35;13.85;;;20.80;59.60;;;;;;4993468;28;20328;-65
2022/03/23 10:50:08;;;;;;;15.27;13.70;;;21.10;59.30;;;;;;4995331;28;20300;-64
2022/03/23 10:52:37;;;;;;;16.42;14.73;;;21.40;58.60;;;;;;4993252;28;20225;-65
2022/03/23 10:55:07;;;;;;;17.00;15.30;;;21.70;57.80;;;;;;4989825;28;20253;-65
2022/03/23 10:58:04;;;;;;;16.30;14.60;;;21.90;58.90;;;;;;4993614;28;20640;-64
2022/03/23 11:00:35;;;;;;;16.40;14.70;;;21.90;58.10;;;;;;4993553;28;20256;-64
2022/03/23 11:03:07;;;;;;;17.48;15.68;;;21.90;58.60;;;;;;4987379;28;20206;-64
2022/03/23 11:05:37;;;;;;;17.35;15.35;;;22.10;57.90;;;;;;4993606;28;20234;-64
2022/03/23 11:08:07;;;;;;;16.25;14.75;;;22.20;57.00;;;;;;4993279;28;20261;-64
2022/03/23 11:16:22;;;;;;;16.98;15.48;;;21.90;56.80;;;;;;4993257;28;20226;-65
2022/03/23 11:18:57;;;;;;;16.42;14.80;;;22.50;58.20;;;;;;4993037;28;20233;-65
2022/03/23 11:21:28;;;;;;;16.45;14.60;;;22.80;57.80;;;;;;4993161;28;20256;-65
2022/03/23 11:23:56;;;;;;;17.35;14.88;;;22.90;55.30;;;;;;4992659;28;20233;-65
2022/03/23 11:26:24;;;;;;;15.75;14.13;;;22.60;55.90;;;;;;4993110;28;20236;-64
2022/03/23 11:28:54;;;;;;;15.30;13.80;;;22.60;54.10;;;;;;4992950;28;20264;-65
2022/03/23 11:31:22;;;;;;;16.08;14.27;;;22.60;55.20;;;;;;4993069;28;20232;-65
2022/03/23 11:33:53;;;;;;;16.50;15.10;;;22.80;53.90;;;;;;4992598;28;20320;-64
2022/03/23 11:36:23;;;;;;;15.80;14.20;;;23.00;55.30;;;;;;4992948;28;20340;-65
2022/03/23 11:38:51;;;;;;;15.52;13.13;;;22.80;53.00;;;;;;4992983;28;20218;-65
2022/03/23 11:41:20;;;;;;;13.98;12.77;;;22.90;52.80;;;;;;4992890;28;20234;-65
2022/03/23 11:43:48;;;;;;;13.40;12.10;;;23.20;53.90;;;;;;4992029;28;20284;-65
2022/03/23 11:46:22;;;;;;;14.20;12.85;;;23.50;50.90;;;;;;4992667;28;20205;-64
2022/03/23 11:49:10;;;;;;;13.23;11.98;;;23.80;52.20;;;;;;4992561;28;20320;-65
2022/03/23 11:51:58;;;;;;;14.10;12.50;;;24.30;49.10;;;;;;4994696;28;20274;-65
2022/03/23 11:57:18;;;;;;;12.00;11.00;;;23.80;49.80;;;;;;4991645;28;20268;-64
2022/03/23 11:59:46;;;;;;;11.82;10.88;;;24.30;48.90;;;;;;4986471;28;20253;-65
2022/03/23 12:02:18;;;;;;;11.68;10.43;;;24.50;47.70;;;;;;4986034;28;20640;-65
2022/03/23 12:04:48;;;;;;;12.07;10.95;;;24.90;49.50;;;;;;4986919;28;20754;-65
2022/03/23 12:07:16;;;;;;;12.55;11.55;;;24.90;49.00;;;;;;4992238;28;20233;-65
2022/03/23 12:09:45;;;;;;;10.80;9.90;;;25.30;47.90;;;;;;4992319;28;20289;-65
2022/03/23 12:12:14;;;;;;;14.25;12.95;;;25.30;48.40;;;;;;4992076;28;20301;-65
2022/03/23 12:14:42;;;;;;;11.18;10.07;;;25.80;48.40;;;;;;4992126;28;20202;-65
2022/03/23 12:17:17;;;;;;;10.93;9.77;;;25.80;49.70;;;;;;4991936;28;20304;-65
2022/03/23 12:20:00;;;;;;;9.27;8.57;;;25.70;46.80;;;;;;4992124;28;20671;-65
2022/03/23 12:22:54;;;;;;;9.93;9.18;;;26.00;45.20;;;;;;4991703;28;20257;-67
2022/03/23 12:25:33;;;;;;;9.60;8.90;;;26.00;46.30;;;;;;4991795;28;20237;-66
2022/03/23 12:28:19;;;;;;;10.95;9.95;;;26.80;47.60;;;;;;4991839;28;20244;-65
2022/03/23 12:31:01;;;;;;;10.00;9.18;;;26.90;46.00;;;;;;4992313;28;20635;-65
2022/03/23 12:33:32;;;;;;;9.90;9.00;;;27.10;46.10;;;;;;4984985;28;20261;-66
2022/03/23 12:36:03;;;;;;;10.25;9.45;;;27.00;46.30;;;;;;4992112;28;20276;-65
2022/03/23 12:38:33;;;;;;;10.63;9.63;;;26.50;44.80;;;;;;4992107;28;20256;-65
2022/03/23 12:41:03;;;;;;;10.98;10.07;;;26.70;45.20;;;;;;4992025;28;20312;-65
2022/03/23 12:43:39;;;;;;;11.48;10.57;;;26.50;45.00;;;;;;4991320;28;20629;-65
2022/03/23 12:46:18;;;;;;;12.07;10.05;;;25.90;44.70;;;;;;4991849;28;20205;-65
2022/03/23 13:00:25;;;;;;;11.43;10.52;;;27.10;45.80;;;;;;4991786;28;20297;-65
2022/03/23 13:03:52;;;;;;;15.68;11.30;;;27.40;46.40;;;;;;4991375;28;20336;-66
2022/03/23 13:06:32;;;;;;;11.93;11.00;;;27.30;44.50;;;;;;4992615;28;20198;-65
2022/03/23 13:09:01;;;;;;;14.27;12.77;;;26.20;44.50;;;;;;4992101;28;20634;-65
2022/03/23 13:11:32;;;;;;;12.85;11.55;;;25.90;45.00;;;;;;4991566;28;20206;-65
2022/03/23 13:14:02;;;;;;;13.13;11.60;;;26.00;44.80;;;;;;4991488;28;20252;-65
2022/03/23 13:16:31;;;;;;;11.60;10.45;;;26.20;45.20;;;;;;4991585;28;20214;-65
2022/03/23 13:19:02;;;;;;;13.20;12.13;;;26.70;45.80;;;;;;4991370;28;20221;-65
2022/03/23 13:21:33;;;;;;;11.80;10.80;;;26.60;44.90;;;;;;4991195;28;20229;-65
2022/03/23 13:24:04;;;;;;;15.02;12.82;;;26.60;45.30;;;;;;4991001;28;20209;-65
2022/03/23 13:26:34;;;;;;;12.45;11.15;;;26.30;44.70;;;;;;4991854;28;20742;-65
2022/03/23 13:29:07;;;;;;;12.15;10.90;;;26.50;45.80;;;;;;4991535;28;20230;-65
2022/03/23 13:31:36;;;;;;;12.32;11.23;;;27.10;45.50;;;;;;4991488;28;20738;-65
2022/03/23 13:34:06;;;;;;;11.68;10.68;;;27.40;45.50;;;;;;4990988;28;20742;-65
2022/03/23 13:36:37;;;;;;;13.55;12.00;;;27.60;45.60;;;;;;4992905;28;20341;-65